Time;durP1;ratioP1;P1;durP2;ratioP2;P2;SDS_P1;SDS_P2;PMS_P1;PMS_P2;Temp;Humidity;BMP_temperature;BMP_pressure;BME280_temperature;BME280_humidity;BME280_pressure;Samples;Min_cycle;Max_cycle;Signal;HPM_P1;HPM_P2
2022/06/29 00:01:19;;;;;;;10.02;2.40;;;;;;;-145.67;100.00;66521.78;4969987;28;20050;-76
2022/06/29 00:03:45;;;;;;;5.25;2.25;;;;;;;-145.67;100.00;66521.78;4971289;28;20280;-77
2022/06/29 00:06:11;;;;;;;8.35;2.13;;;;;;;-145.67;100.00;66521.78;4967287;28;20511;-76
2022/06/29 00:08:36;;;;;;;7.05;2.20;;;;;;;-145.67;100.00;66521.78;4970929;28;20031;-76
2022/06/29 00:11:02;;;;;;;8.75;2.70;;;;;;;-145.67;100.00;66521.78;4974592;28;20546;-75
2022/06/29 00:13:28;;;;;;;7.20;2.38;;;;;;;-145.67;100.00;66521.78;4978897;28;20473;-76
2022/06/29 00:15:54;;;;;;;10.32;2.80;;;;;;;-145.67;100.00;66521.78;4972024;28;20078;-76
2022/06/29 00:18:19;;;;;;;5.68;2.38;;;;;;;-145.67;100.00;66521.78;4973300;28;20034;-75
2022/06/29 00:20:45;;;;;;;8.90;2.65;;;;;;;-145.67;100.00;66521.78;4969798;28;20450;-76
2022/06/29 00:23:11;;;;;;;8.07;2.40;;;;;;;-145.67;100.00;66521.78;4979390;28;20038;-76
2022/06/29 00:25:38;;;;;;;6.88;2.50;;;;;;;-145.67;100.00;66521.78;4974561;28;20504;-76
2022/06/29 00:28:04;;;;;;;5.80;2.80;;;;;;;-145.67;100.00;66521.78;4969252;28;20045;-76
2022/06/29 00:30:29;;;;;;;7.60;2.58;;;;;;;-145.67;100.00;66521.78;4983868;28;20034;-75
2022/06/29 00:32:55;;;;;;;6.53;2.70;;;;;;;-145.67;100.00;66521.78;4969200;28;20526;-75
2022/06/29 00:35:21;;;;;;;6.80;2.40;;;;;;;-145.67;100.00;66521.78;4984847;28;20042;-75
2022/06/29 00:37:47;;;;;;;7.72;2.55;;;;;;;-145.67;100.00;66521.78;4970099;28;20041;-76
2022/06/29 00:40:12;;;;;;;8.02;2.67;;;;;;;-145.67;100.00;66521.78;4969321;28;20046;-75
2022/06/29 00:42:38;;;;;;;8.70;3.13;;;;;;;-145.67;100.00;66521.78;4984533;28;20035;-76
2022/06/29 00:45:06;;;;;;;5.65;2.50;;;;;;;-145.67;100.00;66521.78;4969064;28;20046;-76
2022/06/29 00:47:32;;;;;;;6.82;2.60;;;;;;;-145.67;100.00;66521.78;4978088;28;20065;-76
2022/06/29 00:49:57;;;;;;;8.15;2.75;;;;;;;-145.67;100.00;66521.78;4969022;28;20120;-76
2022/06/29 00:52:25;;;;;;;6.88;2.72;;;;;;;-145.67;100.00;66521.78;4968135;28;20037;-75
2022/06/29 00:55:00;;;;;;;8.65;3.33;;;;;;;-145.67;100.00;66521.78;4967240;28;20030;-77
2022/06/29 00:57:28;;;;;;;7.10;2.90;;;;;;;-145.67;100.00;66521.78;4969517;28;20511;-76
2022/06/29 00:59:55;;;;;;;5.72;2.65;;;;;;;-145.67;100.00;66521.78;4968877;28;20145;-75
2022/06/29 01:02:26;;;;;;;7.00;2.70;;;;;;;-145.67;100.00;66521.78;4983793;28;20464;-75
2022/06/29 01:04:52;;;;;;;6.95;3.17;;;;;;;-145.67;100.00;66521.78;4979597;28;20311;-75
2022/06/29 01:07:24;;;;;;;7.10;3.03;;;;;;;-145.67;100.00;66521.78;4968882;28;20092;-75
2022/06/29 01:09:49;;;;;;;8.95;3.17;;;;;;;-145.67;100.00;66521.78;4966381;28;20046;-76
2022/06/29 01:12:15;;;;;;;4.88;2.78;;;;;;;-145.67;100.00;66521.78;4984109;28;20035;-76
2022/06/29 01:14:44;;;;;;;8.93;3.13;;;;;;;-145.67;100.00;66521.78;4977016;28;20042;-76
2022/06/29 01:17:13;;;;;;;6.38;2.90;;;;;;;-145.67;100.00;66521.78;4983187;28;20049;-75
2022/06/29 01:19:39;;;;;;;7.55;3.22;;;;;;;-145.67;100.00;66521.78;4983493;28;20755;-77
2022/06/29 01:22:10;;;;;;;9.90;3.20;;;;;;;-145.67;100.00;66521.78;4957695;28;20041;-75
2022/06/29 01:24:35;;;;;;;5.97;3.08;;;;;;;-145.67;100.00;66521.78;4971336;28;20407;-76
2022/06/29 01:27:03;;;;;;;7.53;3.30;;;;;;;-145.67;100.00;66521.78;4969808;28;20047;-75
2022/06/29 01:29:29;;;;;;;7.63;2.85;;;;;;;-145.67;100.00;66521.78;4991819;28;20092;-76
2022/06/29 01:31:56;;;;;;;7.15;2.95;;;;;;;-145.67;100.00;66521.78;4989427;28;20264;-76
2022/06/29 01:34:26;;;;;;;7.95;2.97;;;;;;;-145.67;100.00;66521.78;4987373;28;20128;-76
2022/06/29 01:36:52;;;;;;;9.75;2.83;;;;;;;-145.67;100.00;66521.78;4967825;28;20041;-76
2022/06/29 01:39:18;;;;;;;6.47;2.72;;;;;;;-145.67;100.00;66521.78;4968197;28;20141;-76
2022/06/29 01:41:43;;;;;;;5.88;2.95;;;;;;;-145.67;100.00;66521.78;4976441;28;20043;-76
2022/06/29 01:44:09;;;;;;;7.82;3.42;;;;;;;-145.67;100.00;66521.78;4970833;28;20065;-76
2022/06/29 01:46:34;;;;;;;4.68;2.78;;;;;;;-145.67;100.00;66521.78;4987828;28;20154;-75
2022/06/29 01:49:00;;;;;;;7.32;2.95;;;;;;;-145.67;100.00;66521.78;4992220;28;20034;-76
2022/06/29 01:51:25;;;;;;;7.30;3.00;;;;;;;-145.67;100.00;66521.78;4987679;28;20033;-75
2022/06/29 01:53:51;;;;;;;7.75;2.95;;;;;;;-145.67;100.00;66521.78;4986414;28;20034;-76
2022/06/29 01:56:17;;;;;;;6.30;2.58;;;;;;;-145.67;100.00;66521.78;4987124;28;20121;-76
2022/06/29 01:58:45;;;;;;;7.05;2.83;;;;;;;-145.67;100.00;66521.78;5002839;28;20076;-76
2022/06/29 02:01:12;;;;;;;4.47;2.60;;;;;;;-145.67;100.00;66521.78;5000393;28;20189;-74
2022/06/29 02:03:38;;;;;;;6.28;2.83;;;;;;;-145.67;100.00;66521.78;4984631;28;20036;-74
2022/06/29 02:06:04;;;;;;;7.28;2.83;;;;;;;-145.67;100.00;66521.78;4986924;28;20081;-75
2022/06/29 02:08:30;;;;;;;7.82;2.75;;;;;;;-145.67;100.00;66521.78;4987389;28;20067;-75
2022/06/29 02:10:58;;;;;;;9.88;3.15;;;;;;;-145.67;100.00;66521.78;4982556;28;20174;-74
2022/06/29 02:13:24;;;;;;;5.20;2.58;;;;;;;-145.67;100.00;66521.78;4967876;28;20030;-74
2022/06/29 02:15:49;;;;;;;7.88;2.72;;;;;;;-145.67;100.00;66521.78;4988416;28;20490;-75
2022/06/29 02:18:15;;;;;;;5.82;2.75;;;;;;;-145.67;100.00;66521.78;4971671;28;21562;-75
2022/06/29 02:20:43;;;;;;;6.43;2.65;;;;;;;-145.67;100.00;66521.78;4968276;28;20483;-74
2022/06/29 02:23:08;;;;;;;5.53;2.45;;;;;;;-145.67;100.00;66521.78;4976612;28;20042;-74
2022/06/29 02:25:34;;;;;;;5.18;2.53;;;;;;;-145.67;100.00;66521.78;4967750;28;20053;-75
2022/06/29 02:27:59;;;;;;;5.05;2.40;;;;;;;-145.67;100.00;66521.78;4968300;28;21081;-75
2022/06/29 02:34:43;;;;;;;4.78;2.40;;;;;;;-145.67;100.00;66521.78;4968114;28;20038;-76
2022/06/29 02:35:57;;;;;;;4.90;2.60;;;;;;;-145.67;100.00;66521.78;4972188;28;20042;-75
2022/06/29 02:38:23;;;;;;;4.65;2.30;;;;;;;-145.67;100.00;66521.78;4995909;28;20082;-75
2022/06/29 02:40:49;;;;;;;5.10;2.75;;;;;;;-145.67;100.00;66521.78;4986283;28;20041;-75
2022/06/29 02:43:17;;;;;;;4.28;2.30;;;;;;;-145.67;100.00;66521.78;4987361;28;20079;-75
2022/06/29 02:45:42;;;;;;;6.32;2.60;;;;;;;-145.67;100.00;66521.78;4972704;28;21776;-75
2022/06/29 02:48:08;;;;;;;5.47;2.63;;;;;;;-145.67;100.00;66521.78;4978961;28;20154;-75
2022/06/29 02:50:34;;;;;;;7.35;2.78;;;;;;;-145.67;100.00;66521.78;4992990;28;20525;-75
2022/06/29 02:53:00;;;;;;;5.53;2.60;;;;;;;-145.67;100.00;66521.78;4963781;28;20042;-75
2022/06/29 02:55:26;;;;;;;4.57;2.50;;;;;;;-145.67;100.00;66521.78;4969031;28;20133;-75
2022/06/29 02:57:54;;;;;;;5.63;2.75;;;;;;;-145.67;100.00;66521.78;4975902;28;20070;-75
2022/06/29 03:00:20;;;;;;;4.70;2.83;;;;;;;-145.67;100.00;66521.78;4972447;28;20261;-76
2022/06/29 03:02:48;;;;;;;4.75;2.60;;;;;;;-145.67;100.00;66521.78;4971962;28;20057;-74
2022/06/29 03:05:16;;;;;;;6.93;3.10;;;;;;;-145.67;100.00;66521.78;4971241;28;24956;-74
2022/06/29 03:07:41;;;;;;;7.22;2.80;;;;;;;-145.67;100.00;66521.78;4991139;28;20050;-75
2022/06/29 03:10:07;;;;;;;6.57;2.85;;;;;;;-145.67;100.00;66521.78;4990409;28;20049;-76
2022/06/29 03:12:33;;;;;;;7.72;3.10;;;;;;;-145.67;100.00;66521.78;4970689;28;20042;-75
2022/06/29 03:14:59;;;;;;;6.40;3.08;;;;;;;-145.67;100.00;66521.78;4970994;28;20529;-75
2022/06/29 03:17:27;;;;;;;3.85;2.80;;;;;;;-145.67;100.00;66521.78;4971525;28;20049;-75
2022/06/29 03:19:52;;;;;;;5.68;3.13;;;;;;;-145.67;100.00;66521.78;4980616;28;20061;-76
2022/06/29 03:22:20;;;;;;;4.85;2.85;;;;;;;-145.67;100.00;66521.78;4982371;28;20128;-76
2022/06/29 03:24:45;;;;;;;6.90;2.70;;;;;;;-145.67;100.00;66521.78;4983662;28;20410;-75
2022/06/29 03:27:11;;;;;;;6.40;3.25;;;;;;;-145.67;100.00;66521.78;4982258;28;20046;-75
2022/06/29 03:29:36;;;;;;;6.55;3.10;;;;;;;-145.67;100.00;66521.78;4980389;28;20419;-75
2022/06/29 03:32:02;;;;;;;6.82;2.83;;;;;;;-145.67;100.00;66521.78;4977780;28;20031;-75
2022/06/29 03:34:27;;;;;;;4.85;3.00;;;;;;;-145.67;100.00;66521.78;4995094;28;20750;-75
2022/06/29 03:36:53;;;;;;;6.15;2.80;;;;;;;-145.67;100.00;66521.78;5002572;28;20473;-74
2022/06/29 03:39:18;;;;;;;5.63;3.08;;;;;;;-145.67;100.00;66521.78;5005066;28;20041;-75
2022/06/29 03:41:44;;;;;;;6.10;2.97;;;;;;;-145.67;100.00;66521.78;5002642;28;20651;-75
2022/06/29 03:44:09;;;;;;;5.18;3.00;;;;;;;-145.67;100.00;66521.78;5001386;28;20030;-74
2022/06/29 03:46:35;;;;;;;6.68;3.58;;;;;;;-145.67;100.00;66521.78;5016432;28;20674;-75
2022/06/29 03:49:01;;;;;;;7.18;3.28;;;;;;;-145.67;100.00;66521.78;5000902;28;20033;-75
2022/06/29 03:51:26;;;;;;;5.97;2.80;;;;;;;-145.67;100.00;66521.78;5001965;28;20757;-74
2022/06/29 03:53:54;;;;;;;5.63;3.45;;;;;;;-145.67;100.00;66521.78;5000837;28;20030;-75
2022/06/29 03:56:20;;;;;;;6.40;3.65;;;;;;;-145.67;100.00;66521.78;4987163;28;20557;-75
2022/06/29 03:58:45;;;;;;;4.40;3.25;;;;;;;-145.67;100.00;66521.78;4990389;28;20098;-75
2022/06/29 04:01:11;;;;;;;7.13;3.08;;;;;;;-145.67;100.00;66521.78;4998535;28;20090;-76
2022/06/29 04:03:44;;;;;;;5.65;3.30;;;;;;;-145.67;100.00;66521.78;5001533;28;20063;-75
2022/06/29 04:06:10;;;;;;;5.20;3.28;;;;;;;-145.67;100.00;66521.78;4998920;28;20054;-75
2022/06/29 04:08:37;;;;;;;6.82;3.30;;;;;;;-145.67;100.00;66521.78;5007143;28;20030;-75
2022/06/29 04:11:03;;;;;;;5.60;3.00;;;;;;;-145.67;100.00;66521.78;4989853;28;20314;-74
2022/06/29 04:13:30;;;;;;;6.03;3.03;;;;;;;-145.67;100.00;66521.78;4988512;28;20037;-76
2022/06/29 04:15:56;;;;;;;7.72;3.33;;;;;;;-145.67;100.00;66521.78;4982883;28;20103;-77
2022/06/29 04:18:26;;;;;;;5.70;3.10;;;;;;;-145.67;100.00;66521.78;4995775;28;20661;-75
2022/06/29 04:21:07;;;;;;;4.88;3.40;;;;;;;-145.67;100.00;66521.78;5003739;28;20065;-74
2022/06/29 04:23:32;;;;;;;7.63;3.13;;;;;;;-145.67;100.00;66521.78;4990150;28;20397;-75
2022/06/29 04:25:58;;;;;;;4.95;3.17;;;;;;;-145.67;100.00;66521.78;4990606;28;20045;-76
2022/06/29 04:28:24;;;;;;;6.78;3.80;;;;;;;-145.67;100.00;66521.78;4989583;28;20108;-76
2022/06/29 04:30:50;;;;;;;5.55;3.10;;;;;;;-145.67;100.00;66521.78;4990155;28;20078;-75
2022/06/29 04:33:15;;;;;;;5.88;3.50;;;;;;;-145.67;100.00;66521.78;5003060;28;20068;-75
2022/06/29 04:35:41;;;;;;;5.55;2.97;;;;;;;-145.67;100.00;66521.78;5004309;28;20033;-75
2022/06/29 04:38:06;;;;;;;4.88;3.17;;;;;;;-145.67;100.00;66521.78;4999306;28;20118;-75
2022/06/29 04:40:32;;;;;;;6.70;3.22;;;;;;;-145.67;100.00;66521.78;4999756;28;20412;-75
2022/06/29 04:42:57;;;;;;;7.32;3.20;;;;;;;-145.67;100.00;66521.78;4996077;28;20073;-75
2022/06/29 04:48:07;;;;;;;6.28;3.20;;;;;;;-145.67;100.00;66521.78;5013440;28;20065;-74
2022/06/29 04:50:34;;;;;;;6.07;3.13;;;;;;;-145.67;100.00;66521.78;4997548;28;20143;-75
2022/06/29 04:53:00;;;;;;;5.97;3.10;;;;;;;-145.67;100.00;66521.78;5014457;28;20436;-75
2022/06/29 04:55:29;;;;;;;7.03;3.03;;;;;;;-145.67;100.00;66521.78;4983428;28;20044;-74
2022/06/29 04:57:55;;;;;;;7.65;3.40;;;;;;;-145.67;100.00;66521.78;4997601;28;20589;-74
2022/06/29 05:00:23;;;;;;;6.15;2.90;;;;;;;-145.67;100.00;66521.78;5000438;28;20063;-75
2022/06/29 05:02:48;;;;;;;6.63;2.70;;;;;;;-145.67;100.00;66521.78;5003435;28;20366;-75
2022/06/29 05:05:14;;;;;;;7.00;2.63;;;;;;;-145.67;100.00;66521.78;4999894;28;21964;-75
2022/06/29 05:07:40;;;;;;;4.53;2.38;;;;;;;-145.67;100.00;66521.78;5014094;28;20096;-74
2022/06/29 05:10:06;;;;;;;8.95;2.53;;;;;;;-145.67;100.00;66521.78;4999594;28;20032;-75
2022/06/29 05:12:32;;;;;;;5.05;2.20;;;;;;;-145.67;100.00;66521.78;5001637;28;20044;-75
2022/06/29 05:14:57;;;;;;;5.50;2.53;;;;;;;-145.67;100.00;66521.78;4999829;28;20322;-74
2022/06/29 05:17:22;;;;;;;6.55;2.85;;;;;;;-145.67;100.00;66521.78;5005998;28;20625;-74
2022/06/29 05:19:48;;;;;;;6.22;3.20;;;;;;;-145.67;100.00;66521.78;4999657;28;20046;-75
2022/06/29 05:22:14;;;;;;;7.57;2.60;;;;;;;-145.67;100.00;66521.78;4998710;28;20576;-75
2022/06/29 05:24:39;;;;;;;7.45;3.22;;;;;;;-145.67;100.00;66521.78;5012206;28;20072;-76
2022/06/29 05:27:07;;;;;;;8.57;3.40;;;;;;;-145.67;100.00;66521.78;4989075;28;20049;-75
2022/06/29 05:29:33;;;;;;;8.55;3.30;;;;;;;-145.67;100.00;66521.78;5012990;28;20586;-76
2022/06/29 05:31:58;;;;;;;4.65;2.72;;;;;;;-145.67;100.00;66521.78;4999757;28;20050;-76
2022/06/29 05:34:27;;;;;;;4.63;2.45;;;;;;;-145.67;100.00;66521.78;4999315;28;20034;-75
2022/06/29 05:36:52;;;;;;;7.90;2.45;;;;;;;-145.67;100.00;66521.78;5000743;28;20033;-75
2022/06/29 05:39:18;;;;;;;8.93;2.88;;;;;;;-145.67;100.00;66521.78;5000513;28;20095;-75
2022/06/29 05:41:43;;;;;;;8.65;3.40;;;;;;;-145.67;100.00;66521.78;4989646;28;20047;-75
2022/06/29 05:44:11;;;;;;;10.23;3.08;;;;;;;-145.67;100.00;66521.78;5000608;28;20113;-75
2022/06/29 05:46:39;;;;;;;7.45;3.13;;;;;;;-145.67;100.00;66521.78;4995785;28;20398;-74
2022/06/29 05:49:04;;;;;;;8.43;3.78;;;;;;;-145.67;100.00;66521.78;4999965;28;20984;-73
2022/06/29 05:51:30;;;;;;;7.63;3.22;;;;;;;-145.67;100.00;66521.78;4999166;28;20525;-74
2022/06/29 05:53:59;;;;;;;6.18;2.92;;;;;;;-145.67;100.00;66521.78;5010970;28;20057;-73
2022/06/29 05:56:25;;;;;;;7.13;3.10;;;;;;;-145.67;100.00;66521.78;4999951;28;20107;-74
2022/06/29 05:58:51;;;;;;;7.43;3.58;;;;;;;-145.67;100.00;66521.78;5004948;28;20046;-75
2022/06/29 06:01:19;;;;;;;8.52;3.17;;;;;;;-145.67;100.00;66521.78;5002603;28;20081;-75
2022/06/29 06:03:45;;;;;;;9.02;3.13;;;;;;;-145.67;100.00;66521.78;4999955;28;20526;-75
2022/06/29 06:06:10;;;;;;;7.03;3.30;;;;;;;-145.67;100.00;66521.78;5002734;28;20038;-75
2022/06/29 06:08:37;;;;;;;8.35;3.60;;;;;;;-145.67;100.00;66521.78;4999613;28;20174;-76
2022/06/29 06:11:03;;;;;;;10.10;4.22;;;;;;;-145.67;100.00;66521.78;4999358;28;20186;-75
2022/06/29 06:13:28;;;;;;;6.80;3.45;;;;;;;-145.67;100.00;66521.78;5000166;28;20033;-75
2022/06/29 06:15:54;;;;;;;6.45;2.95;;;;;;;-145.67;100.00;66521.78;5000688;28;20048;-76
2022/06/29 06:18:19;;;;;;;7.60;3.17;;;;;;;-145.67;100.00;66521.78;5002587;28;20041;-75
2022/06/29 06:20:47;;;;;;;8.57;3.40;;;;;;;-145.67;100.00;66521.78;4995921;28;20095;-75
2022/06/29 06:23:12;;;;;;;7.57;3.05;;;;;;;-145.67;100.00;66521.78;5000299;28;20030;-75
2022/06/29 06:25:38;;;;;;;6.75;2.90;;;;;;;-145.67;100.00;66521.78;5001382;28;20048;-76
2022/06/29 06:28:05;;;;;;;7.65;3.50;;;;;;;-145.67;100.00;66521.78;5001672;28;20037;-75
2022/06/29 06:30:33;;;;;;;9.30;4.28;;;;;;;-145.67;100.00;66521.78;5000156;28;20071;-75
2022/06/29 06:32:59;;;;;;;6.95;3.28;;;;;;;-145.67;100.00;66521.78;5013378;28;20116;-75
2022/06/29 06:35:25;;;;;;;9.40;3.88;;;;;;;-145.67;100.00;66521.78;5002488;28;20120;-76
2022/06/29 06:37:52;;;;;;;7.20;3.25;;;;;;;-145.67;100.00;66521.78;4989441;28;20033;-75
2022/06/29 06:43:03;;;;;;;11.77;3.83;;;;;;;-145.67;100.00;66521.78;5001276;28;20576;-77
2022/06/29 06:45:34;;;;;;;5.90;2.85;;;;;;;-145.67;100.00;66521.78;5001182;28;20568;-77
2022/06/29 06:47:59;;;;;;;7.13;3.53;;;;;;;-145.67;100.00;66521.78;4988515;28;20034;-77
2022/06/29 06:50:27;;;;;;;10.15;4.32;;;;;;;-145.67;100.00;66521.78;4983151;28;20413;-77
2022/06/29 06:52:52;;;;;;;7.03;3.60;;;;;;;-145.67;100.00;66521.78;5001573;28;20049;-78
2022/06/29 06:55:18;;;;;;;10.07;3.65;;;;;;;-145.67;100.00;66521.78;5004989;28;20471;-76
2022/06/29 06:57:45;;;;;;;8.05;2.90;;;;;;;-145.67;100.00;66521.78;4986937;28;20052;-76
2022/06/29 07:00:11;;;;;;;8.10;2.97;;;;;;;-145.67;100.00;66521.78;4997082;28;20042;-76
2022/06/29 07:02:40;;;;;;;6.68;3.45;;;;;;;-145.67;100.00;66521.78;5002520;28;20026;-76
2022/06/29 07:05:06;;;;;;;10.60;3.20;;;;;;;-145.67;100.00;66521.78;5001561;28;20057;-78
2022/06/29 07:07:31;;;;;;;11.05;3.38;;;;;;;-145.67;100.00;66521.78;4991699;28;20256;-78
2022/06/29 07:09:57;;;;;;;7.30;2.60;;;;;;;-145.67;100.00;66521.78;5003494;28;20044;-78
2022/06/29 07:12:22;;;;;;;7.82;2.78;;;;;;;-145.67;100.00;66521.78;5003225;28;20038;-78
2022/06/29 07:14:48;;;;;;;8.18;3.00;;;;;;;-145.67;100.00;66521.78;5001277;28;20335;-76
2022/06/29 07:17:16;;;;;;;11.30;4.55;;;;;;;-145.67;100.00;66521.78;4991794;28;20030;-76
2022/06/29 07:19:42;;;;;;;9.52;3.15;;;;;;;-145.67;100.00;66521.78;5003726;28;20383;-75
2022/06/29 07:22:07;;;;;;;8.30;2.70;;;;;;;-145.67;100.00;66521.78;4991731;28;20143;-76
2022/06/29 07:24:33;;;;;;;6.95;3.00;;;;;;;-145.67;100.00;66521.78;5004746;28;20065;-76
2022/06/29 07:26:58;;;;;;;7.55;3.50;;;;;;;-145.67;100.00;66521.78;5002827;28;20138;-77
2022/06/29 07:29:27;;;;;;;7.85;2.90;;;;;;;-145.67;100.00;66521.78;5003452;28;20034;-78
2022/06/29 07:31:52;;;;;;;9.43;2.50;;;;;;;-145.67;100.00;66521.78;5000082;28;20128;-78
2022/06/29 07:34:17;;;;;;;6.80;2.30;;;;;;;-145.67;100.00;66521.78;5002814;28;20026;-76
2022/06/29 07:36:43;;;;;;;8.13;2.00;;;;;;;-145.67;100.00;66521.78;5015551;28;20169;-77
2022/06/29 07:39:09;;;;;;;7.93;2.65;;;;;;;-145.67;100.00;66521.78;5000739;28;20037;-77
2022/06/29 07:41:36;;;;;;;6.20;2.25;;;;;;;-145.67;100.00;66521.78;5002480;28;20045;-77
2022/06/29 07:44:07;;;;;;;6.05;1.90;;;;;;;-145.67;100.00;66521.78;4996477;28;20033;-77
2022/06/29 07:46:35;;;;;;;4.45;2.10;;;;;;;-145.67;100.00;66521.78;5004100;28;20112;-78
2022/06/29 07:49:01;;;;;;;5.50;2.05;;;;;;;-145.67;100.00;66521.78;5017128;28;20320;-78
2022/06/29 07:51:27;;;;;;;4.90;2.05;;;;;;;-145.67;100.00;66521.78;5003044;28;20048;-77
2022/06/29 07:53:52;;;;;;;6.15;2.42;;;;;;;-145.67;100.00;66521.78;5002109;28;20045;-77
2022/06/29 07:56:18;;;;;;;8.13;2.50;;;;;;;-145.67;100.00;66521.78;4992646;28;20052;-78
2022/06/29 07:58:46;;;;;;;8.02;2.35;;;;;;;-145.67;100.00;66521.78;5004847;28;20034;-76
2022/06/29 08:01:11;;;;;;;5.95;2.28;;;;;;;-145.67;100.00;66521.78;5002646;28;20037;-78
2022/06/29 08:03:37;;;;;;;7.60;2.35;;;;;;;-145.67;100.00;66521.78;5000360;28;20563;-76
2022/06/29 08:06:05;;;;;;;5.38;2.30;;;;;;;-145.67;100.00;66521.78;5000734;28;20679;-77
2022/06/29 08:08:31;;;;;;;5.88;2.05;;;;;;;-145.67;100.00;66521.78;5002013;28;20694;-76
2022/06/29 08:10:57;;;;;;;7.25;1.92;;;;;;;-145.67;100.00;66521.78;5001601;28;20060;-77
2022/06/29 08:13:23;;;;;;;4.45;2.22;;;;;;;-145.67;100.00;66521.78;5001268;28;20142;-76
2022/06/29 08:15:51;;;;;;;6.22;2.38;;;;;;;-145.67;100.00;66521.78;5008179;28;20034;-77
2022/06/29 08:18:17;;;;;;;5.18;1.80;;;;;;;-145.67;100.00;66521.78;5009177;28;21828;-76
2022/06/29 08:20:45;;;;;;;5.50;1.88;;;;;;;-145.67;100.00;66521.78;5003127;28;20485;-76
2022/06/29 08:23:11;;;;;;;8.68;2.50;;;;;;;-145.67;100.00;66521.78;5003116;28;20037;-76
2022/06/29 08:25:39;;;;;;;6.60;2.58;;;;;;;-145.67;100.00;66521.78;5018627;28;20100;-76
2022/06/29 08:28:08;;;;;;;7.43;2.50;;;;;;;-145.67;100.00;66521.78;5004084;28;21923;-77
2022/06/29 08:30:33;;;;;;;6.85;2.35;;;;;;;-145.67;100.00;66521.78;5004448;28;20124;-76
2022/06/29 08:33:01;;;;;;;5.68;2.10;;;;;;;-145.67;100.00;66521.78;5002796;28;20117;-76
2022/06/29 08:35:29;;;;;;;6.72;2.65;;;;;;;-145.67;100.00;66521.78;5004557;28;20058;-75
2022/06/29 08:37:54;;;;;;;5.85;2.60;;;;;;;-145.67;100.00;66521.78;5004143;28;20059;-76
2022/06/29 08:40:20;;;;;;;7.45;2.80;;;;;;;-145.67;100.00;66521.78;5002501;28;20109;-76
2022/06/29 08:42:46;;;;;;;6.25;2.40;;;;;;;-145.67;100.00;66521.78;4990355;28;20049;-75
2022/06/29 08:45:12;;;;;;;7.07;2.40;;;;;;;-145.67;100.00;66521.78;5001940;28;20502;-76
2022/06/29 08:47:41;;;;;;;4.10;2.10;;;;;;;-145.67;100.00;66521.78;5002181;28;20061;-76
2022/06/29 08:50:08;;;;;;;5.80;2.15;;;;;;;-145.67;100.00;66521.78;5001147;28;20099;-75
2022/06/29 08:52:35;;;;;;;4.68;2.08;;;;;;;-145.67;100.00;66521.78;5006635;28;20041;-75
2022/06/29 08:55:06;;;;;;;6.30;1.95;;;;;;;-145.67;100.00;66521.78;5003839;28;20695;-76
2022/06/29 08:57:36;;;;;;;6.00;2.20;;;;;;;-145.67;100.00;66521.78;5010321;28;20033;-76
2022/06/29 09:00:04;;;;;;;5.00;2.05;;;;;;;-145.67;100.00;66521.78;5018490;28;20042;-76
2022/06/29 09:02:29;;;;;;;6.40;2.00;;;;;;;-145.67;100.00;66521.78;5001261;28;21079;-75
2022/06/29 09:04:56;;;;;;;5.15;2.08;;;;;;;-145.67;100.00;66521.78;5001109;28;20054;-76
2022/06/29 09:07:23;;;;;;;5.80;2.20;;;;;;;-145.67;100.00;66521.78;5002489;28;20190;-76
2022/06/29 09:10:12;;;;;;;5.43;2.00;;;;;;;-145.67;100.00;66521.78;5003022;28;20057;-76
2022/06/29 09:12:38;;;;;;;8.10;2.17;;;;;;;-145.67;100.00;66521.78;5003756;28;20478;-77
2022/06/29 09:15:09;;;;;;;9.13;3.00;;;;;;;-145.67;100.00;66521.78;5002928;28;20034;-77
2022/06/29 09:17:35;;;;;;;6.57;2.47;;;;;;;-145.67;100.00;66521.78;5002612;28;20080;-75
2022/06/29 09:20:02;;;;;;;6.18;1.88;;;;;;;-145.67;100.00;66521.78;5000488;28;20034;-75
2022/06/29 09:22:31;;;;;;;5.00;2.10;;;;;;;-145.67;100.00;66521.78;5012731;28;20132;-74
2022/06/29 09:24:57;;;;;;;8.05;2.45;;;;;;;-145.67;100.00;66521.78;5001134;28;20057;-75
2022/06/29 09:27:25;;;;;;;3.97;1.92;;;;;;;-145.67;100.00;66521.78;5015368;28;20138;-74
2022/06/29 09:29:50;;;;;;;4.43;1.92;;;;;;;-145.67;100.00;66521.78;5000668;28;20137;-72
2022/06/29 09:32:19;;;;;;;7.60;2.28;;;;;;;-145.67;100.00;66521.78;5002262;28;20060;-77
2022/06/29 09:34:49;;;;;;;6.03;2.20;;;;;;;-145.67;100.00;66521.78;5014368;28;20038;-74
2022/06/29 09:37:27;;;;;;;5.32;2.05;;;;;;;-145.67;100.00;66521.78;4988587;28;20502;-74
2022/06/29 09:39:56;;;;;;;4.00;2.13;;;;;;;-145.67;100.00;66521.78;4983498;28;20092;-73
2022/06/29 09:42:26;;;;;;;5.95;2.25;;;;;;;-145.67;100.00;66521.78;5005776;28;20129;-74
2022/06/29 09:44:51;;;;;;;7.65;2.50;;;;;;;-145.67;100.00;66521.78;5002732;28;20306;-74
2022/06/29 09:47:21;;;;;;;8.85;3.72;;;;;;;-145.67;100.00;66521.78;5013831;28;20734;-74
2022/06/29 09:49:52;;;;;;;6.82;2.63;;;;;;;-145.67;100.00;66521.78;4998562;28;20514;-73
2022/06/29 09:52:19;;;;;;;3.00;1.80;;;;;;;-145.67;100.00;66521.78;4997821;28;20694;-74
2022/06/29 09:54:52;;;;;;;4.80;2.00;;;;;;;-145.67;100.00;66521.78;4989038;28;20034;-72
2022/06/29 09:57:26;;;;;;;5.85;1.77;;;;;;;-145.67;100.00;66521.78;4995136;28;20108;-73
2022/06/29 10:02:43;;;;;;;7.57;2.30;;;;;;;-145.67;100.00;66521.78;5000527;28;20073;-73
2022/06/29 10:05:13;;;;;;;7.22;2.53;;;;;;;-145.67;100.00;66521.78;4967414;28;20041;-72
2022/06/29 10:07:43;;;;;;;5.85;2.33;;;;;;;-145.67;100.00;66521.78;4995958;28;20095;-73
2022/06/29 10:10:16;;;;;;;7.70;2.75;;;;;;;-145.67;100.00;66521.78;4998813;28;20038;-72
2022/06/29 10:15:56;;;;;;;4.45;1.80;;;;;;;-145.67;100.00;66521.78;4998500;28;20048;-73
2022/06/29 10:18:50;;;;;;;4.63;1.80;;;;;;;-145.67;100.00;66521.78;4996888;28;20056;-73
2022/06/29 10:21:22;;;;;;;6.57;1.77;;;;;;;-145.67;100.00;66521.78;5001927;28;20477;-74
2022/06/29 10:23:56;;;;;;;3.92;1.63;;;;;;;-145.67;100.00;66521.78;4999784;28;20513;-73
2022/06/29 10:26:37;;;;;;;5.88;1.52;;;;;;;-145.67;100.00;66521.78;4994446;28;20162;-75
2022/06/29 10:29:07;;;;;;;10.80;3.60;;;;;;;-145.67;100.00;66521.78;4998897;28;20510;-72
2022/06/29 10:31:54;;;;;;;3.90;1.70;;;;;;;-145.67;100.00;66521.78;4998256;28;20123;-72
2022/06/29 10:34:31;;;;;;;3.28;1.40;;;;;;;-145.67;100.00;66521.78;4998879;28;20191;-73
2022/06/29 10:37:11;;;;;;;5.00;1.77;;;;;;;-145.67;100.00;66521.78;4998932;28;20479;-73
2022/06/29 10:39:49;;;;;;;5.20;1.80;;;;;;;-145.67;100.00;66521.78;4995535;28;20034;-74
2022/06/29 10:45:17;;;;;;;5.03;1.48;;;;;;;-145.67;100.00;66521.78;4998596;28;20044;-73
2022/06/29 10:47:55;;;;;;;7.53;2.08;;;;;;;-145.67;100.00;66521.78;4996370;28;20138;-73
2022/06/29 10:50:31;;;;;;;3.53;1.40;;;;;;;-145.67;100.00;66521.78;4995136;28;20129;-74
2022/06/29 10:53:16;;;;;;;7.70;3.05;;;;;;;-145.67;100.00;66521.78;4994070;28;20033;-75
2022/06/29 10:55:47;;;;;;;8.23;3.03;;;;;;;-145.67;100.00;66521.78;4979607;28;20048;-73
2022/06/29 10:58:12;;;;;;;9.07;2.27;;;;;;;-145.67;100.00;66521.78;5007585;28;20042;-76
2022/06/29 11:00:43;;;;;;;12.60;2.65;;;;;;;-145.67;100.00;66521.78;5001045;28;20284;-74
2022/06/29 11:03:13;;;;;;;5.57;1.80;;;;;;;-145.67;100.00;66521.78;4997305;28;20040;-74
2022/06/29 11:12:01;;;;;;;9.55;2.00;;;;;;;-145.67;100.00;66521.78;5009197;28;20527;-77
2022/06/29 11:14:03;;;;;;;4.38;1.73;;;;;;;-145.67;100.00;66521.78;5001615;28;20397;-80
2022/06/29 11:16:33;;;;;;;3.13;1.23;;;;;;;-145.67;100.00;66521.78;4998595;28;20073;-82
2022/06/29 11:18:59;;;;;;;7.07;2.00;;;;;;;-145.67;100.00;66521.78;5010930;28;20386;-78
2022/06/29 11:21:25;;;;;;;4.05;1.27;;;;;;;-145.67;100.00;66521.78;5008066;28;20115;-79
2022/06/29 11:23:55;;;;;;;6.45;2.25;;;;;;;-145.67;100.00;66521.78;5004784;28;20037;-77
2022/06/29 11:26:28;;;;;;;2.85;1.20;;;;;;;-145.67;100.00;66521.78;5004880;28;20274;-79
2022/06/29 11:28:53;;;;;;;4.93;1.20;;;;;;;-145.67;100.00;66521.78;5006587;28;20522;-75
2022/06/29 11:31:22;;;;;;;9.23;7.15;;;;;;;-145.67;100.00;66521.78;4981937;28;20156;-78
2022/06/29 11:33:49;;;;;;;11.15;7.93;;;;;;;-145.67;100.00;66521.78;5005173;28;20122;-79